createdAt,value
2023-04-02T00:00:10.873Z,7.47
2023-04-02T00:03:13.362Z,8.15
2023-04-02T00:06:32.961Z,6.50
2023-04-02T00:09:37.445Z,7.25
2023-04-02T00:12:39.863Z,6.90
2023-04-02T00:15:46.160Z,5.80
2023-04-02T00:18:52.681Z,8.57
2023-04-02T00:21:57.466Z,5.87
2023-04-02T00:25:03.994Z,5.68
2023-04-02T00:28:06.447Z,5.65
2023-04-02T00:31:11.077Z,6.17
2023-04-02T00:34:24.164Z,6.93
2023-04-02T00:37:30.319Z,6.60
2023-04-02T00:40:32.491Z,6.82
2023-04-02T00:43:38.491Z,6.68
2023-04-02T00:46:48.577Z,6.57
2023-04-02T00:49:58.833Z,7.32
2023-04-02T00:53:09.092Z,7.25
2023-04-02T00:56:25.949Z,7.97
2023-04-02T00:59:35.954Z,7.00
2023-04-02T01:02:40.960Z,7.97
2023-04-02T01:05:45.532Z,8.82
2023-04-02T01:08:55.147Z,8.30
2023-04-02T01:12:03.402Z,6.85
2023-04-02T01:15:39.976Z,6.95
2023-04-02T01:19:02.511Z,7.70
2023-04-02T01:22:22.377Z,7.32
2023-04-02T01:25:41.034Z,7.82
2023-04-02T01:29:06.865Z,8.15
2023-04-02T01:32:15.144Z,7.62
2023-04-02T01:35:17.715Z,6.40
2023-04-02T01:38:38.246Z,6.93
2023-04-02T01:41:48.360Z,7.45
2023-04-02T01:44:59.725Z,7.10
2023-04-02T01:48:24.937Z,6.65
2023-04-02T01:51:31.888Z,6.13
2023-04-02T01:54:37.995Z,8.13
2023-04-02T01:57:47.773Z,8.30
2023-04-02T02:00:53.468Z,6.05
2023-04-02T02:03:55.808Z,7.28
2023-04-02T02:07:02.847Z,8.17
2023-04-02T02:10:05.889Z,7.30
2023-04-02T02:13:14.949Z,6.72
2023-04-02T02:16:18.600Z,7.35
2023-04-02T02:19:29.043Z,7.87
2023-04-02T02:22:35.726Z,8.23
2023-04-02T02:25:38.187Z,6.37
2023-04-02T02:28:42.835Z,7.20
2023-04-02T02:31:48.602Z,6.97
2023-04-02T02:35:00.528Z,8.45
2023-04-02T02:38:27.179Z,8.00
2023-04-02T02:41:31.900Z,8.40
2023-04-02T02:44:37.026Z,7.32
2023-04-02T02:47:42.417Z,7.35
2023-04-02T02:50:45.389Z,9.82
2023-04-02T02:53:53.726Z,7.30
2023-04-02T02:57:03.333Z,7.30
2023-04-02T03:00:08.130Z,7.18
2023-04-02T03:03:34.495Z,7.03
2023-04-02T03:06:36.865Z,7.28
2023-04-02T03:10:04.434Z,7.37
2023-04-02T03:13:32.897Z,6.97
2023-04-02T03:16:41.209Z,6.97
2023-04-02T03:19:56.406Z,7.25
2023-04-02T03:23:13.417Z,7.68
2023-04-02T03:26:23.281Z,8.87
2023-04-02T03:29:33.443Z,8.95
2023-04-02T03:32:39.454Z,7.18
2023-04-02T03:35:48.225Z,6.90
2023-04-02T03:39:24.774Z,7.35
2023-04-02T03:42:30.857Z,9.50
2023-04-02T03:45:39.852Z,8.95
2023-04-02T03:48:47.174Z,7.03
2023-04-02T03:51:57.716Z,8.88
2023-04-02T03:55:02.803Z,8.65
2023-04-02T03:58:23.315Z,9.63
2023-04-02T04:01:52.323Z,8.75
2023-04-02T04:04:56.659Z,11.05
2023-04-02T04:08:06.722Z,12.98
2023-04-02T04:11:20.174Z,13.00
2023-04-02T04:14:32.405Z,12.67
2023-04-02T04:17:41.139Z,15.02
2023-04-02T04:20:57.651Z,12.48
2023-04-02T04:24:15.033Z,13.88
2023-04-02T04:27:42.982Z,10.77
2023-04-02T04:31:02.102Z,10.43
2023-04-02T04:34:11.763Z,10.00
2023-04-02T04:37:21.824Z,8.15
2023-04-02T04:40:28.406Z,8.63
2023-04-02T04:43:44.278Z,8.00
2023-04-02T04:47:11.108Z,7.77
2023-04-02T04:50:21.880Z,8.48
2023-04-02T04:53:26.488Z,9.02
2023-04-02T04:56:30.952Z,9.38
2023-04-02T04:59:44.559Z,7.50
2023-04-02T05:02:54.495Z,10.80
2023-04-02T05:06:06.475Z,7.68
2023-04-02T05:09:13.761Z,7.95
2023-04-02T05:12:26.920Z,10.02
2023-04-02T05:15:42.353Z,7.90
2023-04-02T05:18:51.389Z,8.83
2023-04-02T05:22:12.097Z,9.73
2023-04-02T05:25:23.755Z,7.72
2023-04-02T05:28:38.022Z,7.80
2023-04-02T05:31:48.993Z,8.20
2023-04-02T05:34:55.089Z,7.03
2023-04-02T05:37:58.214Z,7.53
2023-04-02T05:41:27.239Z,8.95
2023-04-02T05:44:38.582Z,8.90
2023-04-02T05:47:43.911Z,7.97
2023-04-02T05:50:51.333Z,7.67
2023-04-02T05:53:58.780Z,8.48
2023-04-02T05:57:08.019Z,7.47
2023-04-02T06:00:23.826Z,7.15
2023-04-02T06:03:28.610Z,8.38
2023-04-02T06:06:39.873Z,8.30
2023-04-02T06:10:05.143Z,7.05
2023-04-02T06:13:08.740Z,7.62
2023-04-02T06:16:15.288Z,7.10
2023-04-02T06:19:34.160Z,7.35
2023-04-02T06:22:43.568Z,8.57
2023-04-02T06:26:20.766Z,6.60
2023-04-02T06:29:40.219Z,6.93
2023-04-02T06:32:42.430Z,7.15
2023-04-02T06:35:47.189Z,6.45
2023-04-02T06:38:51.221Z,7.30
2023-04-02T06:42:24.971Z,9.85
2023-04-02T06:45:33.473Z,8.95
2023-04-02T06:48:38.140Z,7.80
2023-04-02T06:51:43.668Z,8.52
2023-04-02T06:54:47.464Z,7.10
2023-04-02T06:57:49.732Z,6.62
2023-04-02T07:00:52.401Z,7.32
2023-04-02T07:03:55.444Z,7.43
2023-04-02T07:06:57.663Z,7.25
2023-04-02T07:09:59.844Z,8.27
2023-04-02T07:13:02.688Z,10.32
2023-04-02T07:16:05.282Z,8.90
2023-04-02T07:19:20.661Z,8.48
2023-04-02T07:22:22.877Z,9.80
2023-04-02T07:25:26.923Z,10.53
2023-04-02T07:28:29.424Z,10.63
2023-04-02T07:31:31.737Z,10.65
2023-04-02T07:34:34.515Z,12.70
2023-04-02T07:37:38.701Z,9.95
2023-04-02T07:40:41.445Z,10.17
2023-04-02T07:43:44.819Z,8.70
2023-04-02T07:46:47.406Z,10.02
2023-04-02T07:49:49.560Z,8.18
2023-04-02T07:52:51.684Z,10.95
2023-04-02T07:55:54.221Z,10.70
2023-04-02T07:58:56.564Z,9.32
2023-04-02T08:01:59.128Z,8.60
2023-04-02T08:05:01.662Z,9.85
2023-04-02T08:08:03.791Z,8.40
2023-04-02T08:11:06.622Z,5.33
2023-04-02T08:14:09.665Z,5.65
2023-04-02T08:17:12.074Z,5.62
2023-04-02T08:20:22.636Z,6.15
2023-04-02T08:23:25.546Z,7.35
2023-04-02T08:26:27.922Z,6.07
2023-04-02T08:29:32.452Z,3.92
2023-04-02T08:32:34.610Z,3.65
2023-04-02T08:35:37.076Z,3.05
2023-04-02T08:38:39.367Z,3.78
2023-04-02T08:42:02.940Z,3.30
2023-04-02T08:45:23.515Z,6.55
2023-04-02T08:48:27.374Z,2.85
2023-04-02T08:51:34.644Z,2.37
2023-04-02T08:54:38.172Z,3.45
2023-04-02T08:57:42.858Z,2.80
2023-04-02T09:00:47.897Z,3.20
2023-04-02T09:03:52.391Z,3.65
2023-04-02T09:06:56.832Z,2.60
2023-04-02T09:09:59.584Z,3.55
2023-04-02T09:13:03.281Z,2.97
2023-04-02T09:16:12.357Z,2.60
2023-04-02T09:19:25.527Z,3.35
2023-04-02T09:22:38.569Z,3.37
2023-04-02T09:25:54.096Z,3.95
2023-04-02T09:29:12.632Z,3.27
2023-04-02T09:32:28.166Z,3.37
2023-04-02T09:35:32.937Z,3.12
2023-04-02T09:38:35.660Z,2.05
2023-04-02T09:41:38.719Z,4.45
2023-04-02T09:44:41.404Z,2.87
2023-04-02T09:47:43.568Z,3.53
2023-04-02T09:50:45.749Z,3.65
2023-04-02T09:53:49.606Z,3.08
2023-04-02T09:57:03.669Z,3.67
2023-04-02T10:03:33.130Z,4.28
2023-04-02T10:06:35.405Z,3.47
2023-04-02T10:09:39.029Z,3.25
2023-04-02T10:12:42.552Z,3.12
2023-04-02T10:15:47.375Z,2.43
2023-04-02T10:19:13.422Z,4.07
2023-04-02T10:22:18.215Z,3.90
2023-04-02T10:25:25.448Z,3.08
2023-04-02T10:28:43.308Z,3.60
2023-04-02T10:32:07.032Z,4.17
2023-04-02T10:35:38.353Z,3.58
2023-04-02T10:38:55.621Z,5.22
2023-04-02T10:42:21.602Z,3.05
2023-04-02T10:45:57.753Z,2.47
2023-04-02T10:49:21.519Z,2.07
2023-04-02T10:52:23.455Z,3.95
2023-04-02T10:55:33.959Z,3.80
2023-04-02T10:58:51.385Z,4.35
2023-04-02T11:01:56.819Z,2.33
2023-04-02T11:05:05.975Z,3.47
2023-04-02T11:08:26.266Z,3.40
2023-04-02T11:11:36.765Z,4.12
2023-04-02T11:14:41.177Z,3.83
2023-04-02T11:17:45.226Z,3.92
2023-04-02T11:20:50.566Z,4.40
2023-04-02T11:24:03.450Z,3.37
2023-04-02T11:27:11.544Z,4.72
2023-04-02T11:30:18.198Z,4.35
2023-04-02T11:33:39.171Z,3.75
2023-04-02T11:37:03.697Z,3.83
2023-04-02T11:40:12.302Z,3.67
2023-04-02T11:43:32.938Z,4.75
2023-04-02T11:46:40.641Z,4.22
2023-04-02T11:50:01.956Z,4.37
2023-04-02T11:53:14.973Z,4.07
2023-04-02T11:56:22.007Z,3.87
2023-04-02T11:59:33.754Z,4.47
2023-04-02T12:02:54.020Z,3.87
2023-04-02T12:06:04.383Z,4.12
2023-04-02T12:09:34.818Z,3.10
2023-04-02T12:12:40.581Z,3.62
2023-04-02T12:15:44.833Z,3.87
2023-04-02T12:18:54.020Z,4.55
2023-04-02T12:21:56.753Z,5.25
2023-04-02T12:25:05.573Z,3.60
2023-04-02T12:28:14.705Z,3.97
2023-04-02T12:31:21.766Z,3.70
2023-04-02T12:34:28.680Z,3.25
2023-04-02T12:37:31.874Z,3.97
2023-04-02T12:40:34.401Z,3.17
2023-04-02T12:43:38.200Z,2.20
2023-04-02T12:46:40.769Z,3.80
2023-04-02T12:49:44.947Z,3.30
2023-04-02T12:52:50.420Z,1.87
2023-04-02T12:55:54.369Z,3.30
2023-04-02T12:58:58.285Z,3.37
2023-04-02T13:02:02.908Z,3.65
2023-04-02T13:05:05.179Z,3.58
2023-04-02T13:08:16.650Z,3.45
2023-04-02T13:11:19.291Z,2.93
2023-04-02T13:14:24.631Z,5.62
2023-04-02T13:17:45.473Z,3.17
2023-04-02T13:21:00.146Z,6.57
2023-04-02T13:24:02.152Z,8.27
2023-04-02T13:27:04.830Z,3.03
2023-04-02T13:30:09.623Z,5.28
2023-04-02T13:33:12.233Z,5.55
2023-04-02T13:36:15.411Z,7.85
2023-04-02T13:39:18.162Z,5.22
2023-04-02T13:42:20.511Z,6.70
2023-04-02T13:45:27.536Z,4.87
2023-04-02T13:48:29.875Z,3.35
2023-04-02T13:51:37.870Z,4.53
2023-04-02T13:55:00.164Z,2.95
2023-04-02T13:58:03.759Z,5.40
2023-04-02T14:01:06.761Z,1.80
2023-04-02T14:04:12.912Z,3.90
2023-04-02T14:07:48.670Z,1.85
2023-04-02T14:10:54.650Z,2.90
2023-04-02T14:14:17.425Z,2.40
2023-04-02T14:17:52.114Z,3.47
2023-04-02T14:21:19.160Z,3.08
2023-04-02T14:25:06.430Z,3.30
2023-04-02T14:28:26.987Z,2.83
2023-04-02T14:31:47.231Z,2.90
2023-04-02T14:35:05.142Z,2.62
2023-04-02T14:38:32.354Z,3.12
2023-04-02T14:41:46.513Z,2.83
2023-04-02T14:45:04.668Z,2.22
2023-04-02T14:48:51.801Z,2.33
2023-04-02T14:52:06.499Z,2.20
2023-04-02T14:55:22.830Z,2.58
2023-04-02T14:59:23.759Z,3.05
2023-04-02T15:02:46.818Z,2.97
2023-04-02T15:05:57.675Z,1.97
2023-04-02T15:09:12.343Z,1.73
2023-04-02T15:12:36.311Z,2.03
2023-04-02T15:15:44.592Z,2.42
2023-04-02T15:18:51.269Z,2.45
2023-04-02T15:22:28.962Z,2.50
2023-04-02T15:25:43.383Z,2.37
2023-04-02T15:29:29.669Z,1.73
2023-04-02T15:32:35.455Z,2.12
2023-04-02T15:35:48.017Z,2.00
2023-04-02T15:39:12.519Z,1.73
2023-04-02T15:42:31.182Z,1.30
2023-04-02T15:45:49.357Z,1.80
2023-04-02T15:48:55.107Z,2.37
2023-04-02T15:52:13.062Z,2.25
2023-04-02T15:55:44.551Z,2.90
2023-04-02T15:59:24.975Z,2.75
2023-04-02T16:02:59.214Z,3.00
2023-04-02T16:06:26.911Z,2.15
2023-04-02T16:09:43.466Z,2.55
2023-04-02T16:12:46.947Z,2.30
2023-04-02T16:16:11.345Z,2.42
2023-04-02T16:19:40.111Z,2.95
2023-04-02T16:22:59.376Z,2.60
2023-04-02T16:26:11.179Z,2.25
2023-04-02T16:29:20.362Z,1.90
2023-04-02T16:32:46.601Z,3.67
2023-04-02T16:36:02.380Z,2.55
2023-04-02T16:39:44.711Z,2.33
2023-04-02T16:42:51.645Z,2.15
2023-04-02T16:46:12.504Z,3.30
2023-04-02T16:49:56.761Z,4.70
2023-04-02T16:53:54.554Z,4.53
2023-04-02T16:57:31.579Z,2.47
2023-04-02T17:00:54.689Z,4.78
2023-04-02T17:04:29.500Z,3.63
2023-04-02T17:07:44.770Z,2.92
2023-04-02T17:10:53.893Z,2.97
2023-04-02T17:14:07.057Z,3.75
2023-04-02T17:17:17.743Z,3.05
2023-04-02T17:20:25.804Z,3.30
2023-04-02T17:23:32.117Z,3.08
2023-04-02T17:26:39.111Z,2.50
2023-04-02T17:29:46.467Z,3.25
2023-04-02T17:32:49.765Z,4.15
2023-04-02T17:36:01.610Z,5.40
2023-04-02T17:39:17.473Z,3.80
2023-04-02T17:42:48.980Z,5.62
2023-04-02T17:45:56.111Z,3.92
2023-04-02T17:49:16.900Z,5.20
2023-04-02T17:52:48.505Z,6.23
2023-04-02T17:56:03.839Z,4.32
2023-04-02T17:59:28.471Z,6.00
2023-04-02T18:02:47.256Z,5.75
2023-04-02T18:06:07.350Z,5.60
2023-04-02T18:09:37.763Z,7.97
2023-04-02T18:13:09.449Z,6.57
2023-04-02T18:16:34.203Z,7.00
2023-04-02T18:20:04.973Z,4.32
2023-04-02T18:23:38.423Z,6.03
2023-04-02T18:26:48.532Z,3.17
2023-04-02T18:30:12.175Z,5.82
2023-04-02T18:33:25.680Z,6.47
2023-04-02T18:36:38.661Z,7.18
2023-04-02T18:40:05.936Z,7.22
2023-04-02T18:43:27.166Z,6.03
2023-04-02T18:47:11.656Z,6.03
2023-04-02T18:50:37.203Z,5.70
2023-04-02T18:53:42.706Z,8.38
2023-04-02T18:56:46.611Z,5.47
2023-04-02T18:59:58.567Z,6.40
2023-04-02T19:03:01.874Z,6.40
2023-04-02T19:06:25.029Z,6.05
2023-04-02T19:09:42.362Z,5.60
2023-04-02T19:12:46.617Z,5.57
2023-04-02T19:15:57.530Z,6.93
2023-04-02T19:19:27.338Z,5.43
2023-04-02T19:23:10.794Z,4.78
2023-04-02T19:26:23.606Z,5.32
2023-04-02T19:30:01.232Z,6.62
2023-04-02T19:33:42.418Z,7.13
2023-04-02T19:36:57.351Z,6.03
2023-04-02T19:40:25.259Z,6.30
2023-04-02T19:43:28.921Z,7.25
2023-04-02T19:46:32.230Z,7.03
2023-04-02T19:49:36.298Z,7.13
2023-04-02T19:52:39.997Z,6.03
2023-04-02T19:55:44.616Z,6.18
2023-04-02T19:58:47.462Z,5.65
2023-04-02T20:01:51.358Z,7.60
2023-04-02T20:04:54.198Z,6.60
2023-04-02T20:07:57.361Z,7.55
2023-04-02T20:11:00.726Z,6.07
2023-04-02T20:14:07.262Z,2.95
2023-04-02T20:17:10.308Z,6.45
2023-04-02T20:20:14.321Z,6.73
2023-04-02T20:23:25.216Z,7.53
2023-04-02T20:26:28.425Z,5.72
2023-04-02T20:29:32.803Z,7.75
2023-04-02T20:32:37.803Z,5.72
2023-04-02T20:35:41.417Z,5.60
2023-04-02T20:38:46.325Z,7.53
2023-04-02T20:41:49.103Z,5.97
2023-04-02T20:44:52.260Z,5.85
2023-04-02T20:47:55.689Z,4.28
2023-04-02T20:51:16.965Z,5.50
2023-04-02T20:54:38.118Z,5.68
2023-04-02T20:57:40.362Z,5.28
2023-04-02T21:00:42.563Z,4.82
2023-04-02T21:03:45.328Z,6.82
2023-04-02T21:06:47.657Z,5.13
2023-04-02T21:09:49.727Z,5.78
2023-04-02T21:12:51.899Z,5.47
2023-04-02T21:15:53.991Z,5.78
2023-04-02T21:19:01.155Z,6.22
2023-04-02T21:22:04.398Z,5.60
2023-04-02T21:25:06.795Z,6.32
2023-04-02T21:28:09.347Z,5.32
2023-04-02T21:31:17.238Z,5.97
2023-04-02T21:34:19.523Z,6.95
2023-04-02T21:37:22.952Z,6.20
2023-04-02T21:40:25.646Z,6.35
2023-04-02T21:43:27.746Z,6.68
2023-04-02T21:46:31.930Z,6.68
2023-04-02T21:49:35.340Z,7.43
2023-04-02T21:52:37.545Z,4.63
2023-04-02T21:55:39.713Z,6.25
2023-04-02T21:58:43.498Z,5.50
2023-04-02T22:01:50.776Z,5.32
2023-04-02T22:04:52.940Z,4.57
2023-04-02T22:07:55.031Z,6.47
2023-04-02T22:10:57.252Z,4.03
2023-04-02T22:14:00.304Z,7.25
2023-04-02T22:17:03.544Z,5.70
2023-04-02T22:20:06.905Z,4.60
2023-04-02T22:23:10.437Z,5.87
2023-04-02T22:26:14.314Z,6.97
2023-04-02T22:29:17.279Z,6.53
2023-04-02T22:32:19.413Z,7.53
2023-04-02T22:35:21.558Z,3.53
2023-04-02T22:38:23.548Z,4.83
2023-04-02T22:41:28.376Z,5.53
2023-04-02T22:44:30.425Z,5.25
2023-04-02T22:47:32.586Z,8.50
2023-04-02T22:50:35.038Z,3.97
2023-04-02T22:53:38.299Z,3.50
2023-04-02T22:56:40.487Z,6.65
2023-04-02T22:59:42.570Z,5.32
2023-04-02T23:02:45.142Z,6.62
2023-04-02T23:06:01.653Z,3.50
2023-04-02T23:09:04.314Z,6.87
2023-04-02T23:12:06.547Z,7.25
2023-04-02T23:15:10.048Z,3.30
2023-04-02T23:18:12.150Z,6.60
2023-04-02T23:21:15.254Z,6.93
2023-04-02T23:24:17.920Z,5.70
2023-04-02T23:27:20.742Z,5.62
2023-04-02T23:30:22.985Z,5.62
2023-04-02T23:33:25.127Z,6.07
2023-04-02T23:36:30.187Z,5.72
2023-04-02T23:39:32.251Z,6.47
2023-04-02T23:42:34.932Z,7.15
2023-04-02T23:45:37.035Z,5.28
2023-04-02T23:48:39.299Z,6.05
2023-04-02T23:51:41.685Z,6.20
2023-04-02T23:54:43.894Z,5.47
2023-04-02T23:57:46.373Z,4.80
